• Join FlightAware (Why Join?)
  • Login
  • US Flag 
01:44PM EDT


 

Airport Tracker/Info


-or-


 

Live Flight TrackerFlight Track Log ✈ DAL1820 ✈ 10-May-2013 ✈ KLAX - KMEM

Flight Track Log - Related Links

Times and Time Zones

All times are in EDT time to prevent confusion due to time zone crossing. See the DAL1820 flight status page for this flight to view local times or setup timezone preferences in your user account.

Time Position Orientation Groundspeed Altitude Reporting Facility
EDT Latitude Longitude Course Direction KTS MPH feet Rate Location/Type
04:48AM 33.9167 -118.4667 90° East 202 232 1,900  Level Southern California TRACON
04:49AM 33.8500 -118.4833 192° South 274 315 3,300 1,800 Climbing Southern California TRACON
04:50AM 33.7612 -118.6149 132° Southeast  Level FlightAware Approximate
04:50AM 33.8236 -118.4914 194° South 273 314 4,300  Level Los Angeles Center
04:51AM 33.6809 -118.5018 101° East  Level FlightAware Approximate
04:51AM 33.7447 -118.5106 191° South 294 338 6,800  Level Los Angeles Center
04:52AM 33.6436 -118.3590 116° Southeast  Level FlightAware Approximate
04:52AM 33.6814 -118.4678 151° Southeast 295 339 9,200  Level Los Angeles Center
04:53AM 33.6333 -118.2110 90° East  Level FlightAware Approximate
04:53AM 33.6539 -118.3758 110° East 295 339 10,800  Level Los Angeles Center
04:54AM 33.6333 -118.0642 90° East  Level FlightAware Approximate
04:54AM 33.6444 -118.2656 96° East 340 391 11,800  Level Los Angeles Center
04:55AM 33.6444 -118.1442 90° East 364 419 13,800 1,860 Climbing Los Angeles Center
04:56AM 33.6444 -118.0181 90° East 379 436 15,600 1,740 Climbing Los Angeles Center
04:57AM 33.6442 -117.8878 90° East 391 450 17,300 1,620 Climbing Los Angeles Center
04:58AM 33.6428 -117.7536 91° East 402 463 18,900 1,800 Climbing Los Angeles Center
04:59AM 33.6431 -117.5914 90° East 407 468 21,000 1,620 Climbing Los Angeles Center
05:00AM 33.6417 -117.4544 91° East 411 473 22,200 1,380 Climbing Los Angeles Center
05:01AM 33.6411 -117.3161 90° East 416 479 23,800 1,260 Climbing Los Angeles Center
05:02AM 33.6664 -117.1806 77° East 417 480 24,800 1,020 Climbing Los Angeles Center
05:03AM 33.6942 -117.0450 76° East 421 484 25,900 960 Climbing Los Angeles Center
05:04AM 33.7222 -116.9089 76° East 422 486 26,800 840 Climbing Los Angeles Center
05:05AM 33.7514 -116.7728 76° East 427 491 27,600 720 Climbing Los Angeles Center
05:06AM 33.7808 -116.6322 76° East 429 494 28,300 840 Climbing Los Angeles Center
05:07AM 33.8097 -116.4883 76° East 435 501 29,300 1,080 Climbing Los Angeles Center
05:08AM 33.8378 -116.3481 76° East 434 499 30,500 1,320 Climbing Los Angeles Center
05:09AM 33.8647 -116.2175 76° East 408 470 32,000 1,200 Climbing Los Angeles Center
05:10AM 33.8917 -116.0864 76° East 402 463 33,000 720 Climbing Los Angeles Center
05:11AM 33.9181 -115.9569 76° East 398 458 33,500 420 Climbing Los Angeles Center
05:12AM 33.9450 -115.8236 76° East 407 468 33,900 420 Climbing Los Angeles Center
05:13AM 33.9714 -115.6914 76° East 406 467 34,400 480 Climbing Los Angeles Center
05:14AM 33.9978 -115.5586 76° East 407 468 34,900 240 Climbing Los Angeles Center
05:15AM 34.0236 -115.4261 77° East 407 468 35,000  Climbing Los Angeles Center
05:16AM 34.0506 -115.2922 76° East 411 473 35,000 -60 Level Los Angeles Center
05:17AM 34.0764 -115.1572 77° East 412 474 34,900  Descending Los Angeles Center
05:18AM 34.1022 -115.0242 77° East 411 473 35,000  Climbing Los Angeles Center
05:19AM 34.1283 -114.8886 77° East 413 475 35,000  Level Los Angeles Center
05:20AM 34.1547 -114.7514 77° East 417 480 35,000  Level Los Angeles Center
05:21AM 34.1808 -114.6153 77° East 418 481 35,000 -60 Level Los Angeles Center
05:22AM 34.2064 -114.4789 77° East 416 479 34,900  Descending Los Angeles Center
05:23AM 34.2331 -114.3417 77° East 418 481 35,000 60 Climbing Los Angeles Center
05:23AM 34.2503 -114.2414 78° East 419 482 35,000  Level Albuquerque Center
05:24AM 34.2764 -114.1003 77° East 423 487 35,000  Level Albuquerque Center
05:25AM 34.3033 -113.9592 77° East 427 491 35,000  Level Albuquerque Center
05:26AM 34.3314 -113.8153 77° East 431 496 35,000  Level Albuquerque Center
05:27AM 34.3553 -113.6764 78° East 430 495 35,000  Level Albuquerque Center
05:28AM 34.3758 -113.5619 78° East 429 494 35,000  Level Albuquerque Center
05:29AM 34.4011 -113.4222 78° East 427 491 35,000  Level Albuquerque Center
05:30AM 34.4250 -113.2808 78° East 428 493 35,000  Level Albuquerque Center
05:31AM 34.4525 -113.1317 77° East 435 501 35,000  Level Albuquerque Center
05:32AM 34.4769 -112.9892 78° East 436 502 35,000  Level Albuquerque Center
05:33AM 34.5028 -112.8458 78° East 438 504 35,000  Level Albuquerque Center
05:34AM 34.5281 -112.7017 78° East 440 506 35,000  Level Albuquerque Center
05:35AM 34.5522 -112.5600 78° East 438 504 35,000  Level Albuquerque Center
05:36AM 34.5811 -112.3878 78° East 437 503 35,000  Level Albuquerque Center
05:37AM 34.6008 -112.2711 78° East 435 501 35,000  Level Albuquerque Center
05:38AM 34.6236 -112.1289 79° East 431 496 35,000  Level Albuquerque Center
05:39AM 34.6481 -111.9858 78° East 431 496 35,000  Level Albuquerque Center
05:40AM 34.6717 -111.8422 79° East 432 497 35,000  Level Albuquerque Center
05:41AM 34.6958 -111.6969 79° East 435 501 35,000  Level Albuquerque Center
05:42AM 34.7192 -111.5522 79° East 436 502 35,000  Level Albuquerque Center
05:43AM 34.7428 -111.4078 79° East 435 501 35,000  Level Albuquerque Center
05:44AM 34.7656 -111.2639 79° East 434 499 35,000  Level Albuquerque Center
05:45AM 34.7883 -111.1211 79° East 432 497 35,000  Level Albuquerque Center
05:46AM 34.8108 -110.9803 79° East 427 491 35,000  Level Albuquerque Center
05:47AM 34.8331 -110.8389 79° East 425 489 35,000  Level Albuquerque Center
05:48AM 34.8597 -110.6719 79° East 424 488 35,000  Level Albuquerque Center
05:49AM 34.8806 -110.5369 79° East 424 488 35,000  Level Albuquerque Center
05:50AM 34.9017 -110.4017 79° East 426 490 35,000  Level Albuquerque Center
05:51AM 34.9256 -110.2450 79° East 423 487 35,000  Level Albuquerque Center
05:52AM 34.9456 -110.1108 80° East 422 486 35,000  Level Albuquerque Center
05:53AM 34.9650 -109.9756 80° East 423 487 35,000  Level Albuquerque Center
05:54AM 34.9856 -109.8422 79° East 421 484 35,000  Level Albuquerque Center
05:55AM 35.0078 -109.6856 80° East 421 484 35,000  Level Albuquerque Center
05:56AM 35.0278 -109.5494 80° East 423 487 35,000  Level Albuquerque Center
05:57AM 35.0472 -109.4128 80° East 427 491 35,000  Level Albuquerque Center
05:58AM 35.0697 -109.2542 80° East 426 490 35,000  Level Albuquerque Center
06:00AM 35.0897 -109.1178 80° East 427 491 35,000  Level Albuquerque Center
06:01AM 35.1097 -108.9808 80° East 428 493 35,000  Level Albuquerque Center
06:02AM 35.1281 -108.8439 81° East 429 494 35,000  Level Albuquerque Center
06:03AM 35.1508 -108.6853 80° East 427 491 35,000  Level Albuquerque Center
06:04AM 35.1694 -108.5481 81° East 428 493 35,000  Level Albuquerque Center
06:05AM 35.1883 -108.4111 80° East 428 493 35,000  Level Albuquerque Center
06:06AM 35.2089 -108.2511 81° East 429 494 35,000  Level Albuquerque Center
06:07AM 35.2283 -108.1106 80° East 434 499 35,000  Level Albuquerque Center
06:08AM 35.2461 -107.9714 81° East 434 499 35,000  Level Albuquerque Center
06:09AM 35.2653 -107.8300 81° East 438 504 35,000  Level Albuquerque Center
06:10AM 35.2872 -107.6667 81° East 438 504 35,000  Level Albuquerque Center
06:11AM 35.3058 -107.5250 81° East 439 505 35,000  Level Albuquerque Center
06:12AM 35.3233 -107.3706 82° East 439 505 35,000  Level Albuquerque Center
06:13AM 35.3425 -107.2194 81° East 444 511 35,000  Level Albuquerque Center
06:14AM 35.3606 -107.0714 81° East 451 519 35,000  Level Albuquerque Center
06:15AM 35.3778 -106.9244 82° East 455 524 35,000  Level Albuquerque Center
06:16AM 35.3967 -106.7836 81° East 460 529 35,000  Level Albuquerque Center
06:17AM 35.4150 -106.6278 82° East 459 528 35,000  Level Albuquerque Center
06:18AM 35.4336 -106.4719 82° East 460 529 35,000  Level Albuquerque Center
06:19AM 35.4522 -106.3186 81° East 455 524 35,000  Level Albuquerque Center
06:20AM 35.4703 -106.1664 82° East 451 519 35,000  Level Albuquerque Center
06:21AM 35.4878 -106.0119 82° East 455 524 35,000  Level Albuquerque Center
06:22AM 35.5069 -105.8447 82° East 452 520 35,000  Level Albuquerque Center
06:23AM 35.5247 -105.6900 82° East 452 520 35,000  Level Albuquerque Center
06:24AM 35.5417 -105.5350 82° East 453 521 35,000  Level Albuquerque Center
06:25AM 35.5558 -105.3828 83° East 448 516 35,000  Level Albuquerque Center
06:26AM 35.5719 -105.2267 83° East 453 521 35,000  Level Albuquerque Center
06:27AM 35.5886 -105.0694 83° East 458 527 35,000  Level Albuquerque Center
06:28AM 35.6058 -104.9117 82° East 461 531 35,000  Level Albuquerque Center
06:29AM 35.6233 -104.7531 82° East 463 533 35,000  Level Albuquerque Center
06:30AM 35.6386 -104.5953 83° East 460 529 35,000  Level Albuquerque Center
06:31AM 35.6553 -104.4378 83° East 459 528 35,000  Level Albuquerque Center
06:32AM 35.6683 -104.3075 83° East 456 525 35,000  Level Albuquerque Center
06:33AM 35.6842 -104.1506 83° East 455 524 35,000  Level Albuquerque Center
06:34AM 35.6997 -103.9947 83° East 453 521 35,000  Level Albuquerque Center
06:35AM 35.7142 -103.8367 84° East 456 525 35,000  Level Albuquerque Center
06:36AM 35.7294 -103.6772 83° East 462 532 35,000  Level Albuquerque Center
06:37AM 35.7453 -103.5178 83° East 464 534 35,000  Level Albuquerque Center
06:38AM 35.7589 -103.3564 84° East 467 537 35,000  Level Albuquerque Center
06:39AM 35.7739 -103.1942 83° East 470 541 35,000  Level Albuquerque Center
06:40AM 35.7889 -103.0339 83° East 468 539 35,000  Level Albuquerque Center
06:41AM 35.8028 -102.8778 84° East 466 536 35,000  Level Albuquerque Center
06:42AM 35.8167 -102.7203 84° East 465 535 35,000  Level Albuquerque Center
06:43AM 35.8294 -102.5639 84° East 461 531 35,000  Level Albuquerque Center
06:44AM 35.8428 -102.4083 84° East 456 525 35,000  Level Albuquerque Center
06:45AM 35.8547 -102.2519 85° East 456 525 35,000  Level Albuquerque Center
06:46AM 35.8686 -102.0961 84° East 456 525 35,000  Level Albuquerque Center
06:47AM 35.8806 -101.9386 85° East 459 528 35,000  Level Albuquerque Center
06:48AM 35.8933 -101.7833 84° East 457 526 35,000  Level Albuquerque Center
06:49AM 35.9056 -101.6278 84° East 455 524 35,000  Level Albuquerque Center
06:50AM 35.9175 -101.4731 85° East 454 522 35,000  Level Albuquerque Center
06:51AM 35.9294 -101.3169 85° East 454 522 35,000  Level Albuquerque Center
06:52AM 35.9408 -101.1583 85° East 461 531 35,000  Level Albuquerque Center
06:53AM 35.9522 -100.9986 85° East 465 535 35,000  Level Albuquerque Center
06:54AM 35.9625 -100.8436 85° East 461 531 35,000  Level Albuquerque Center
06:55AM 35.9736 -100.6875 85° East 458 527 35,000  Level Albuquerque Center
06:56AM 35.9825 -100.5347 86° East 452 520 35,000  Level Albuquerque Center
06:57AM 35.9942 -100.3847 84° East 445 512 35,000  Level Albuquerque Center
06:58AM 36.0033 -100.2336 86° East 441 507 35,000  Level Albuquerque Center
06:59AM 36.0153 -100.0814 84° East 442 509 35,000  Level Albuquerque Center
07:00AM 36.0233 -99.9281 86° East 445 512 35,000  Level Albuquerque Center
07:01AM 36.0333 -99.7739 85° East 447 514 35,000  Level Albuquerque Center
07:02AM 36.0428 -99.6189 86° East 450 518 35,000  Level Albuquerque Center
07:03AM 36.0497 -99.4922 86° East 453 521 35,000  Level Kansas City Center
07:04AM 36.0606 -99.3231 85° East 457 526 35,000  Level Kansas City Center
07:05AM 36.0708 -99.1644 85° East 460 529 35,100  Climbing Kansas City Center
07:06AM 36.0775 -99.0067 87° East 461 531 35,000 -60 Descending Kansas City Center
07:07AM 36.0861 -98.8500 86° East 459 528 35,000  Level Kansas City Center
07:08AM 36.0950 -98.6883 86° East 461 531 35,000  Level Kansas City Center
07:09AM 36.1031 -98.5297 86° East 461 531 35,000  Level Kansas City Center
07:10AM 36.1114 -98.3700 86° East 463 533 35,000  Level Kansas City Center
07:11AM 36.1189 -98.2092 87° East 467 537 35,000  Level Kansas City Center
07:12AM 36.1272 -98.0533 86° East 466 536 35,000  Level Kansas City Center
07:13AM 36.1331 -97.8933 87° East 466 536 35,000  Level Kansas City Center
07:14AM 36.1406 -97.7328 87° East 466 536 35,000  Level Kansas City Center
07:15AM 36.1481 -97.5703 87° East 470 541 35,000  Level Kansas City Center
07:16AM 36.1553 -97.4061 87° East 473 544 35,000  Level Kansas City Center
07:17AM 36.1625 -97.2411 87° East 478 550 35,000  Level Kansas City Center
07:18AM 36.1686 -97.0781 87° East 475 547 35,100  Climbing Kansas City Center
07:19AM 36.1736 -96.9175 88° East 468 539 35,000 -60 Descending Kansas City Center
07:20AM 36.1811 -96.7289 87° East 466 536 35,000  Level Kansas City Center
07:21AM 36.1856 -96.5672 88° East 469 540 35,000  Level Kansas City Center
07:22AM 36.1914 -96.4033 87° East 474 545 35,000  Level Kansas City Center
07:23AM 36.1972 -96.2375 87° East 480 552 35,100  Climbing Kansas City Center
07:24AM 36.2022 -96.0736 88° East 479 551 35,000 -60 Descending Kansas City Center
07:25AM 36.2072 -95.9108 88° East 476 548 35,000  Level Kansas City Center
07:26AM 36.2117 -95.7433 88° East 474 545 35,000  Level Kansas City Center
07:27AM 36.2167 -95.5797 88° East 476 548 35,000  Level Kansas City Center
07:28AM 36.2217 -95.4133 88° East 481 554 35,000  Level Kansas City Center
07:29AM 36.2253 -95.2456 88° East 487 560 35,000  Level Kansas City Center
07:30AM 36.2292 -95.0919 88° East 488 562 35,000  Level Kansas City Center
07:31AM 36.2331 -94.8919 89° East 487 560 35,000  Level Kansas City Center
07:32AM 36.2361 -94.7253 89° East 486 559 35,000  Level Kansas City Center
07:33AM 36.2369 -94.5922 90° East 483 556 35,000  Level Memphis Center
07:34AM 36.2383 -94.4250 89° East 483 556 35,000  Level Memphis Center
07:35AM 36.2414 -94.2631 89° East 478 550 35,000  Level Memphis Center
07:36AM 36.2339 -94.0981 93° East 478 550 35,000  Level Memphis Center
07:37AM 36.2094 -93.9350 100° East 478 550 35,000  Level Memphis Center
07:38AM 36.1828 -93.7744 102° East 478 550 35,100  Climbing Memphis Center
07:39AM 36.1564 -93.5933 100° East 484 557 35,000 -60 Descending Memphis Center
07:40AM 36.1292 -93.4356 102° East 479 551 35,000  Level Memphis Center
07:41AM 36.0997 -93.2725 103° East 479 551 35,000  Level Memphis Center
07:42AM 36.0719 -93.1097 102° East 473 544 35,000  Level Memphis Center
07:43AM 36.0419 -92.9522 103° East 473 544 35,000 -420 Level Memphis Center
07:44AM 36.0139 -92.7975 103° East 468 539 34,200 -960 Descending Memphis Center
07:45AM 35.9836 -92.6350 103° East 473 544 33,100 -900 Descending Memphis Center
07:46AM 35.9572 -92.4753 101° East 473 544 32,500 -780 Descending Memphis Center
07:47AM 35.9264 -92.3128 103° East 473 544 31,600 -960 Descending Memphis Center
07:48AM 35.8956 -92.1508 103° East 473 544 30,600 -1,020 Descending Memphis Center
07:49AM 35.8664 -91.9886 102° East 479 551 29,600 -1,200 Descending Memphis Center
07:50AM 35.8353 -91.8217 103° East 479 551 28,200 -1,800 Descending Memphis Center
07:51AM 35.7911 -91.6647 109° East 485 558 26,100 -1,560 Descending Memphis Center
07:52AM 35.7383 -91.5181 114° Southeast 480 552 25,100 -1,020 Descending Memphis Center
07:53AM 35.6853 -91.3794 115° Southeast 462 532 24,100 -960 Descending Memphis Center
07:54AM 35.6425 -91.2561 113° Southeast 439 505 23,200 -1,440 Descending Memphis Center
07:56AM 35.5378 -90.9822 115° Southeast 423 487 19,900 -1,680 Descending Memphis Center
07:57AM 35.4903 -90.8594 115° Southeast 418 481 18,200 -1,680 Descending Memphis Center
07:58AM 35.4447 -90.7367 114° Southeast 400 460 16,600 -1,560 Descending Memphis Center
07:59AM 35.4014 -90.6219 115° Southeast 382 440 15,100 -1,680 Descending Memphis Center
08:00AM 35.3578 -90.5097 115° Southeast 372 428 13,300 -1,560 Descending Memphis Center
08:01AM 35.3056 -90.4156 124° Southeast 351 404 12,000 -1,380 Descending Memphis Center
08:02AM 35.2494 -90.3317 129° Southeast 329 379 10,600 -1,380 Descending Memphis Center
08:03AM 35.1950 -90.2503 129° Southeast 315 362 9,300 -840 Descending Memphis Center
08:04AM 35.1450 -90.1742 129° Southeast 296 341 9,000 -720 Descending Memphis Center
08:05AM 35.0967 -90.1133 134° Southeast 262 302 7,900 -1,380 Descending Memphis Center
08:06AM 35.0167 -90.1167 182° South 235 270 6,000 -1,680 Descending KMEM
08:07AM 34.9500 -90.1000 168° South 224 258 4,100 -1,560 Descending KMEM
08:08AM 34.8833 -90.1000 180° South 220 253 2,500 -1,080 Descending KMEM
08:09AM 34.8667 -90.0500 112° Southeast 222 255 2,000 -660 Descending KMEM